Time;durP1;ratioP1;P1;durP2;ratioP2;P2;SDS_P1;SDS_P2;PMS_P1;PMS_P2;Temp;Humidity;BMP_temperature;BMP_pressure;BME280_temperature;BME280_humidity;BME280_pressure;Samples;Min_cycle;Max_cycle;Signal;HPM_P1;HPM_P2
2022/10/16 00:00:23;;;;;;;9.98;5.15;;;;;;;11.78;100.00;100933.56;5029182;28;20037;-84
2022/10/16 00:02:49;;;;;;;12.52;5.40;;;;;;;11.78;100.00;100928.28;5023697;28;20103;-84
2022/10/16 00:05:14;;;;;;;11.27;5.15;;;;;;;11.80;100.00;100925.53;5028058;28;20860;-84
2022/10/16 00:07:39;;;;;;;12.82;5.13;;;;;;;11.77;100.00;100926.56;5013498;28;20022;-84
2022/10/16 00:10:05;;;;;;;9.18;4.70;;;;;;;11.78;100.00;100923.00;5029609;28;20120;-84
2022/10/16 00:12:30;;;;;;;8.05;4.97;;;;;;;11.77;100.00;100926.56;5029140;28;20021;-83
2022/10/16 00:14:56;;;;;;;7.50;4.90;;;;;;;11.78;100.00;100922.19;5028776;28;20045;-84
2022/10/16 00:17:21;;;;;;;10.95;5.60;;;;;;;11.76;100.00;100930.16;5011822;28;20120;-84
2022/10/16 00:19:47;;;;;;;11.18;5.32;;;;;;;11.78;100.00;100928.28;5029451;28;20109;-84
2022/10/16 00:22:12;;;;;;;12.77;5.20;;;;;;;11.75;100.00;100933.78;5010886;28;20029;-84
2022/10/16 00:24:37;;;;;;;9.23;4.82;;;;;;;11.73;100.00;100926.94;5010871;28;20037;-84
2022/10/16 00:27:02;;;;;;;11.65;4.75;;;;;;;11.73;100.00;100922.50;5010884;28;20017;-84
2022/10/16 00:29:28;;;;;;;8.52;5.00;;;;;;;11.71;100.00;100937.59;5011515;28;20041;-84
2022/10/16 00:31:53;;;;;;;6.57;4.45;;;;;;;11.71;100.00;100931.50;5012207;28;20049;-84
2022/10/16 00:34:18;;;;;;;7.32;4.70;;;;;;;11.70;100.00;100928.00;5028270;28;20461;-84
2022/10/16 00:36:44;;;;;;;9.52;4.60;;;;;;;11.67;100.00;100925.63;5029678;28;20108;-84
2022/10/16 00:39:12;;;;;;;6.90;4.43;;;;;;;11.64;100.00;100938.19;5011283;28;20025;-84
2022/10/16 00:41:37;;;;;;;8.13;4.25;;;;;;;11.66;100.00;100939.75;5010694;28;20060;-84
2022/10/16 00:44:41;;;;;;;7.65;4.60;;;;;;;11.66;100.00;100936.28;5006319;28;20512;-84
2022/10/16 00:47:10;;;;;;;11.95;4.60;;;;;;;11.60;100.00;100941.03;4996023;28;20430;-83
2022/10/16 00:49:35;;;;;;;6.63;4.35;;;;;;;11.60;100.00;100935.78;5008077;28;20025;-83
2022/10/16 00:52:00;;;;;;;5.93;4.10;;;;;;;11.60;100.00;100933.13;5015269;28;20032;-84
2022/10/16 00:54:29;;;;;;;6.32;4.10;;;;;;;11.57;100.00;100938.63;5033151;28;20056;-84
2022/10/16 00:56:56;;;;;;;8.85;4.10;;;;;;;11.56;100.00;100941.41;5011659;28;20091;-83
2022/10/16 00:59:41;;;;;;;7.07;4.03;;;;;;;11.60;100.00;100945.47;4995449;28;20027;-83
2022/10/16 01:02:09;;;;;;;7.50;4.25;;;;;;;11.53;100.00;100933.72;5012398;28;20040;-83
2022/10/16 01:04:38;;;;;;;5.22;4.07;;;;;;;11.52;100.00;100938.16;5000742;28;20091;-84
2022/10/16 01:07:32;;;;;;;6.78;3.97;;;;;;;11.55;100.00;100927.38;5013047;28;20032;-83
2022/10/16 01:09:57;;;;;;;;;;;;;;;11.63;100.00;100924.19;5012394;28;20045;-84
2022/10/16 01:12:34;;;;;;;6.03;3.70;;;;;;;11.52;100.00;100926.78;5014514;28;19913;-84
2022/10/16 01:15:14;;;;;;;6.47;3.95;;;;;;;11.48;100.00;100931.44;5023391;28;20144;-84
2022/10/16 01:17:50;;;;;;;5.28;3.90;;;;;;;11.51;100.00;100925.09;5012567;28;20112;-83
2022/10/16 01:20:47;;;;;;;8.27;4.00;;;;;;;11.51;100.00;100930.38;4998426;28;20029;-84
2022/10/16 01:23:25;;;;;;;7.50;3.90;;;;;;;11.49;100.00;100942.81;5011959;28;20022;-84
2022/10/16 01:26:11;;;;;;;8.13;3.60;;;;;;;11.47;100.00;100942.09;4995771;28;20474;-84
2022/10/16 01:29:00;;;;;;;7.13;3.88;;;;;;;11.47;100.00;100942.09;4996082;28;20650;-84
2022/10/16 01:31:31;;;;;;;7.63;3.55;;;;;;;11.42;100.00;100947.72;5012023;28;20022;-83
2022/10/16 01:34:04;;;;;;;6.75;4.00;;;;;;;11.43;100.00;100944.13;5012992;28;20029;-84
2022/10/16 01:36:46;;;;;;;6.63;4.00;;;;;;;11.44;100.00;100934.44;4998349;28;20116;-83
2022/10/16 01:39:13;;;;;;;4.90;3.70;;;;;;;11.46;100.00;100937.78;5000643;28;20025;-84
2022/10/16 01:41:44;;;;;;;9.93;3.83;;;;;;;11.46;100.00;100945.69;4995075;28;20084;-84
2022/10/16 01:44:16;;;;;;;7.93;3.90;;;;;;;11.47;100.00;100950.00;5031659;28;20056;-84
2022/10/16 01:46:47;;;;;;;12.10;3.80;;;;;;;11.47;100.00;100944.75;5032687;28;20075;-84
2022/10/16 01:49:13;;;;;;;8.80;3.70;;;;;;;11.50;100.00;100928.69;5031916;28;20029;-84
2022/10/16 01:51:40;;;;;;;6.75;3.08;;;;;;;11.50;100.00;100929.53;5030455;28;20022;-84
2022/10/16 01:54:09;;;;;;;9.98;3.72;;;;;;;11.51;100.00;100927.72;5032036;28;20022;-84
2022/10/16 01:56:36;;;;;;;8.07;3.30;;;;;;;11.50;100.00;100931.31;5013867;28;20021;-84
2022/10/16 01:59:06;;;;;;;6.45;3.13;;;;;;;11.52;100.00;100932.03;5013433;28;20547;-84
2022/10/16 02:01:34;;;;;;;7.05;3.10;;;;;;;11.52;100.00;100932.03;5013733;28;20112;-83
2022/10/16 02:04:07;;;;;;;5.55;3.00;;;;;;;11.52;100.00;100937.31;4994490;28;20025;-84
2022/10/16 02:06:32;;;;;;;5.13;2.90;;;;;;;11.51;100.00;100930.38;5011497;28;20025;-84
2022/10/16 02:08:59;;;;;;;6.45;3.30;;;;;;;11.52;100.00;100947.84;5011792;28;20136;-84
2022/10/16 02:11:24;;;;;;;6.13;3.50;;;;;;;11.52;100.00;100937.31;5015734;28;20037;-84
2022/10/16 02:14:03;;;;;;;7.68;3.05;;;;;;;11.55;100.00;100943.19;5011343;28;20103;-84
2022/10/16 02:16:38;;;;;;;6.78;2.70;;;;;;;11.55;100.00;100942.34;4974623;28;20031;-84
2022/10/16 02:19:05;;;;;;;5.68;3.10;;;;;;;11.54;100.00;100946.78;4992190;28;20528;-84
2022/10/16 02:21:54;;;;;;;5.93;2.90;;;;;;;11.54;100.00;100941.50;4991341;28;20033;-84
2022/10/16 02:24:32;;;;;;;4.47;2.40;;;;;;;11.52;100.00;100934.69;4974254;28;20426;-84
2022/10/16 02:27:08;;;;;;;6.43;2.50;;;;;;;11.49;100.00;100941.03;4991311;28;20057;-84
2022/10/16 02:29:39;;;;;;;6.22;2.85;;;;;;;11.47;100.00;100944.75;4991944;28;20367;-84
2022/10/16 02:32:07;;;;;;;8.15;2.90;;;;;;;11.48;100.00;100941.16;4981971;28;20045;-84
2022/10/16 02:34:33;;;;;;;4.40;2.58;;;;;;;11.45;100.00;100938.75;4973541;28;20077;-84
2022/10/16 02:37:01;;;;;;;3.83;2.55;;;;;;;11.43;100.00;100945.94;4979192;28;20064;-84
2022/10/16 02:39:28;;;;;;;4.40;2.40;;;;;;;11.43;100.00;100951.19;5011500;28;20096;-83
2022/10/16 02:41:54;;;;;;;5.82;2.40;;;;;;;11.42;100.00;100953.00;5010934;28;20125;-84
2022/10/16 02:44:20;;;;;;;5.05;2.35;;;;;;;11.41;100.00;100950.47;5010937;28;20537;-84
2022/10/16 02:46:45;;;;;;;4.32;2.38;;;;;;;11.41;100.00;100950.47;5011715;28;20033;-84
2022/10/16 02:49:10;;;;;;;4.80;2.28;;;;;;;11.40;100.00;100943.53;4992846;28;20025;-84
2022/10/16 02:51:36;;;;;;;4.75;2.30;;;;;;;11.38;100.00;100942.81;4993853;28;20026;-84
2022/10/16 02:54:02;;;;;;;6.47;2.72;;;;;;;11.39;100.00;100940.06;4988858;28;20049;-84
2022/10/16 02:56:27;;;;;;;4.50;2.40;;;;;;;11.37;100.00;100933.22;4990532;28;20105;-84
2022/10/16 02:58:52;;;;;;;5.22;2.55;;;;;;;11.33;100.00;100937.06;4991867;28;20026;-84
2022/10/16 03:01:18;;;;;;;4.35;2.58;;;;;;;11.35;100.00;100940.41;4989724;28;20026;-84
2022/10/16 03:03:43;;;;;;;5.95;2.42;;;;;;;11.33;100.00;100947.59;4990759;28;20030;-84
2022/10/16 03:06:08;;;;;;;3.50;2.25;;;;;;;11.30;100.00;100949.50;4991652;28;20026;-84
2022/10/16 03:08:34;;;;;;;4.47;2.17;;;;;;;11.32;100.00;100945.91;4992417;28;20116;-84
2022/10/16 03:11:00;;;;;;;4.40;2.20;;;;;;;11.28;100.00;100948.78;5008452;28;20215;-83
2022/10/16 03:13:25;;;;;;;4.28;2.38;;;;;;;11.29;100.00;100947.81;5013165;28;20037;-83
2022/10/16 03:15:51;;;;;;;3.67;2.38;;;;;;;11.28;100.00;100946.16;5011942;28;20033;-83
2022/10/16 03:18:16;;;;;;;4.25;2.20;;;;;;;11.27;100.00;100947.09;5011886;28;20029;-84
2022/10/16 03:20:43;;;;;;;4.57;2.00;;;;;;;11.25;100.00;100962.19;5030388;28;20143;-84
2022/10/16 03:23:08;;;;;;;4.78;2.50;;;;;;;11.25;100.00;100956.91;5029247;28;20022;-83
2022/10/16 03:25:34;;;;;;;4.50;2.10;;;;;;;11.26;100.00;100963.03;5012308;28;20030;-82
2022/10/16 03:27:59;;;;;;;4.22;2.10;;;;;;;11.24;100.00;100965.78;5012233;28;20018;-82
2022/10/16 03:30:27;;;;;;;4.35;2.25;;;;;;;11.25;100.00;100970.09;5029189;28;20777;-82
2022/10/16 03:32:53;;;;;;;3.47;2.20;;;;;;;11.28;100.00;100976.91;5012866;28;20453;-82
2022/10/16 03:35:23;;;;;;;3.65;2.15;;;;;;;11.26;100.00;100973.56;5012003;28;20109;-82
2022/10/16 03:37:48;;;;;;;6.60;1.98;;;;;;;11.29;100.00;100958.34;5012055;28;20034;-85
2022/10/16 03:40:14;;;;;;;5.25;2.20;;;;;;;11.28;100.00;100961.94;5011860;28;20211;-82
2022/10/16 03:42:42;;;;;;;3.80;2.17;;;;;;;11.29;100.00;100979.44;5029877;28;20036;-83
2022/10/16 03:45:07;;;;;;;4.90;2.10;;;;;;;11.30;100.00;100981.09;5029138;28;20021;-83
2022/10/16 03:47:33;;;;;;;4.80;2.20;;;;;;;11.30;100.00;100986.38;5029937;28;20397;-82
2022/10/16 03:49:59;;;;;;;5.80;2.20;;;;;;;11.28;100.00;100988.28;5011884;28;20025;-83
2022/10/16 03:52:25;;;;;;;3.30;1.98;;;;;;;11.29;100.00;100984.69;5029257;28;20037;-83
2022/10/16 03:54:50;;;;;;;3.33;2.10;;;;;;;11.34;100.00;100986.16;5009240;28;20033;-83
2022/10/16 03:57:16;;;;;;;5.47;2.00;;;;;;;11.33;100.00;100984.47;5015975;28;20109;-83
2022/10/16 03:59:41;;;;;;;6.15;2.33;;;;;;;11.35;100.00;100987.81;5027936;28;20112;-83
2022/10/16 04:02:06;;;;;;;7.20;2.20;;;;;;;11.33;100.00;100989.72;5028924;28;20087;-83
2022/10/16 04:04:32;;;;;;;5.82;2.30;;;;;;;11.34;100.00;100984.34;5027996;28;20071;-84
2022/10/16 04:06:57;;;;;;;3.80;1.80;;;;;;;11.38;100.00;100990.22;5010595;28;20060;-83
2022/10/16 04:09:22;;;;;;;3.88;1.80;;;;;;;11.39;100.00;100991.91;5029788;28;20037;-83
2022/10/16 04:11:48;;;;;;;4.57;1.92;;;;;;;11.39;100.00;100994.53;5011253;28;20025;-84
2022/10/16 04:14:13;;;;;;;5.72;1.90;;;;;;;11.39;100.00;100992.75;5010435;28;20090;-84
2022/10/16 04:16:38;;;;;;;6.30;2.10;;;;;;;11.38;100.00;100988.44;5029564;28;20124;-83
2022/10/16 04:19:04;;;;;;;2.67;1.90;;;;;;;11.40;100.00;100996.22;5011209;28;20112;-83
2022/10/16 04:21:29;;;;;;;3.55;2.00;;;;;;;11.42;100.00;100999.56;5029324;28;20029;-83
2022/10/16 04:23:54;;;;;;;5.70;2.28;;;;;;;11.42;100.00;100996.94;5030033;28;20021;-84
2022/10/16 04:26:20;;;;;;;5.55;2.25;;;;;;;11.42;100.00;100994.31;5010717;28;20075;-83
2022/10/16 04:28:45;;;;;;;5.93;2.53;;;;;;;11.43;100.00;100993.34;5028031;28;20489;-83
2022/10/16 04:31:11;;;;;;;7.07;2.50;;;;;;;11.46;100.00;100985.22;5009149;28;20025;-84
2022/10/16 04:33:36;;;;;;;4.38;2.60;;;;;;;11.47;100.00;100987.72;5009084;28;20101;-83
2022/10/16 04:36:02;;;;;;;6.13;2.38;;;;;;;11.47;100.00;100994.78;5009673;28;20064;-83
2022/10/16 04:38:29;;;;;;;4.15;2.55;;;;;;;11.46;100.00;101006.28;4992027;28;20033;-84
2022/10/16 04:40:58;;;;;;;6.47;2.30;;;;;;;11.46;100.00;101001.03;5009260;28;20442;-85
2022/10/16 04:43:23;;;;;;;3.67;2.42;;;;;;;11.45;100.00;101009.88;5022898;28;20095;-85
2022/10/16 04:45:50;;;;;;;5.85;2.40;;;;;;;11.45;100.00;101018.63;5024759;28;20029;-83
2022/10/16 04:48:16;;;;;;;3.10;2.20;;;;;;;11.45;100.00;101015.16;5008238;28;20026;-84
2022/10/16 04:50:41;;;;;;;5.90;2.55;;;;;;;11.43;100.00;101011.78;4992106;28;20030;-84
2022/10/16 04:53:07;;;;;;;7.18;2.60;;;;;;;11.45;100.00;101020.41;4996003;28;20032;-85
2022/10/16 04:55:33;;;;;;;5.95;2.60;;;;;;;11.44;100.00;101035.38;5028368;28;20037;-84
2022/10/16 04:57:58;;;;;;;4.55;2.55;;;;;;;11.42;100.00;101026.75;5011131;28;20100;-84
2022/10/16 05:00:23;;;;;;;3.33;2.40;;;;;;;11.46;100.00;101036.13;5029391;28;20036;-83
2022/10/16 05:02:52;;;;;;;4.50;2.97;;;;;;;11.46;100.00;101045.81;5025325;28;20145;-85
2022/10/16 05:05:19;;;;;;;5.03;2.60;;;;;;;11.46;100.00;101048.44;5010652;28;20367;-83
2022/10/16 05:07:45;;;;;;;4.70;2.70;;;;;;;11.46;100.00;101053.72;5011456;28;20035;-83
2022/10/16 05:10:11;;;;;;;4.78;2.85;;;;;;;11.46;100.00;101053.72;5009016;28;20116;-85
2022/10/16 05:12:36;;;;;;;3.45;2.40;;;;;;;11.47;100.00;101055.41;5007412;28;20144;-84
2022/10/16 05:15:01;;;;;;;5.50;2.50;;;;;;;11.45;100.00;101058.16;4989164;28;20104;-84
2022/10/16 05:17:27;;;;;;;6.55;2.50;;;;;;;11.42;100.00;101054.91;4988176;28;20025;-83
2022/10/16 05:19:52;;;;;;;7.47;2.70;;;;;;;11.41;100.00;101056.69;5011938;28;20443;-82
2022/10/16 05:22:18;;;;;;;3.10;2.30;;;;;;;11.42;100.00;101053.09;5005426;28;20036;-84
2022/10/16 05:24:43;;;;;;;5.97;2.60;;;;;;;11.40;100.00;101055.03;5021701;28;20045;-83
2022/10/16 05:27:11;;;;;;;10.93;2.65;;;;;;;11.37;100.00;101055.25;5006985;28;20030;-83
2022/10/16 05:29:36;;;;;;;5.72;2.60;;;;;;;11.37;100.00;101051.78;5014503;28;20359;-83
2022/10/16 05:32:01;;;;;;;4.82;2.70;;;;;;;11.36;100.00;101060.63;5013884;28;20029;-83
2022/10/16 05:34:27;;;;;;;5.63;2.40;;;;;;;11.34;100.00;101066.00;5010247;28;20087;-83
2022/10/16 05:36:52;;;;;;;7.03;2.67;;;;;;;11.35;100.00;101066.84;5017730;28;20416;-83
2022/10/16 05:39:18;;;;;;;6.38;2.78;;;;;;;11.35;100.00;101075.59;5011478;28;20025;-82
2022/10/16 05:41:43;;;;;;;6.97;2.65;;;;;;;11.35;100.00;101072.13;5011783;28;20139;-82
2022/10/16 05:44:09;;;;;;;5.68;2.90;;;;;;;11.35;100.00;101078.22;5010830;28;20459;-83
2022/10/16 05:46:35;;;;;;;8.07;2.75;;;;;;;11.34;100.00;101092.34;5011189;28;20473;-84
2022/10/16 05:49:00;;;;;;;5.28;2.70;;;;;;;11.36;100.00;101101.00;5010856;28;20021;-82
2022/10/16 05:51:26;;;;;;;5.05;2.63;;;;;;;11.36;100.00;101101.00;5008946;28;20474;-83
2022/10/16 05:53:52;;;;;;;6.00;2.63;;;;;;;11.35;100.00;101109.84;5021112;28;20032;-83
2022/10/16 05:56:18;;;;;;;6.65;2.95;;;;;;;11.32;100.00;101103.97;5010521;28;20025;-83
2022/10/16 05:58:44;;;;;;;6.82;2.97;;;;;;;11.33;100.00;101110.91;5028684;28;20513;-83
2022/10/16 06:01:15;;;;;;;5.28;3.17;;;;;;;11.33;100.00;101111.75;5028643;28;20489;-84
2022/10/16 06:03:41;;;;;;;6.55;2.65;;;;;;;11.36;100.00;101108.91;5028982;28;20025;-84
2022/10/16 06:06:16;;;;;;;5.93;2.50;;;;;;;11.36;100.00;101118.59;5010256;28;20075;-83
2022/10/16 06:08:43;;;;;;;6.82;2.58;;;;;;;11.34;100.00;101123.97;5019096;28;20030;-84
2022/10/16 06:11:13;;;;;;;5.20;2.97;;;;;;;11.37;100.00;101125.53;5025762;28;20508;-84
2022/10/16 06:13:41;;;;;;;7.70;3.28;;;;;;;11.38;100.00;101135.97;5006939;28;20049;-83
2022/10/16 06:16:07;;;;;;;9.82;3.28;;;;;;;11.37;100.00;101136.91;5028832;28;20056;-84
2022/10/16 06:18:32;;;;;;;5.97;2.80;;;;;;;11.36;100.00;101142.28;5026066;28;20104;-85
2022/10/16 06:21:01;;;;;;;7.45;2.88;;;;;;;11.38;100.00;101150.94;5025946;28;20351;-85
2022/10/16 06:23:28;;;;;;;6.95;2.83;;;;;;;11.37;100.00;101159.78;5020836;28;20061;-86
2022/10/16 06:25:53;;;;;;;7.10;2.70;;;;;;;11.38;100.00;101164.09;5022280;28;20033;-84
2022/10/16 06:28:19;;;;;;;5.75;2.80;;;;;;;11.37;100.00;101160.63;4993328;28;20025;-84
2022/10/16 06:30:44;;;;;;;7.25;2.65;;;;;;;11.40;100.00;101162.19;5026161;28;20025;-85
2022/10/16 06:33:10;;;;;;;6.25;2.67;;;;;;;11.41;100.00;101166.50;5015748;28;20474;-84
2022/10/16 06:35:36;;;;;;;7.90;2.75;;;;;;;11.41;100.00;101169.16;5010154;28;20563;-84
2022/10/16 06:38:01;;;;;;;10.55;3.40;;;;;;;11.39;100.00;101173.69;5012844;28;20058;-84
2022/10/16 06:40:27;;;;;;;7.85;3.20;;;;;;;11.40;100.00;101175.38;5007336;28;20051;-83
2022/10/16 06:42:58;;;;;;;5.53;2.78;;;;;;;11.38;100.00;101179.91;4999274;28;20052;-84
2022/10/16 06:45:23;;;;;;;7.97;3.00;;;;;;;11.43;100.00;101183.88;4999064;28;20025;-84
2022/10/16 06:47:48;;;;;;;8.60;2.80;;;;;;;11.45;100.00;101189.06;5018033;28;20101;-84
2022/10/16 06:50:14;;;;;;;7.32;2.58;;;;;;;11.46;100.00;101196.00;4999313;28;20028;-84
2022/10/16 06:52:39;;;;;;;6.35;2.60;;;;;;;11.47;100.00;101208.22;5021306;28;20421;-84
2022/10/16 06:55:05;;;;;;;5.40;2.67;;;;;;;11.52;100.00;101200.81;4998008;28;20041;-85
2022/10/16 06:57:30;;;;;;;6.07;2.92;;;;;;;11.55;100.00;101208.50;5000041;28;20021;-84
2022/10/16 06:59:56;;;;;;;5.97;3.05;;;;;;;11.59;100.00;101207.34;5017289;28;20039;-85
2022/10/16 07:02:21;;;;;;;6.25;2.67;;;;;;;11.60;100.00;101209.00;5003148;28;20029;-84
2022/10/16 07:04:47;;;;;;;8.73;2.97;;;;;;;11.64;100.00;101205.22;5027568;28;20493;-84
2022/10/16 07:07:12;;;;;;;8.60;3.05;;;;;;;11.70;100.00;101211.84;5009186;28;20159;-84
2022/10/16 07:09:37;;;;;;;6.55;2.80;;;;;;;11.74;100.00;101214.16;5027311;28;20112;-83
2022/10/16 07:12:03;;;;;;;5.80;2.92;;;;;;;11.77;100.00;101226.25;5025905;28;20026;-84
2022/10/16 07:14:29;;;;;;;8.23;2.88;;;;;;;11.80;100.00;101229.53;5000284;28;20056;-84
2022/10/16 07:16:58;;;;;;;4.88;2.55;;;;;;;11.87;100.00;101227.28;5006800;28;20032;-82
2022/10/16 07:19:25;;;;;;;6.82;2.60;;;;;;;11.91;100.00;101231.38;5024234;28;20037;-81
2022/10/16 07:21:50;;;;;;;10.32;2.65;;;;;;;11.98;100.00;101239.69;5002654;28;20029;-82
2022/10/16 07:24:16;;;;;;;5.28;2.60;;;;;;;12.07;100.00;101241.66;4991176;28;20025;-82
2022/10/16 07:26:43;;;;;;;6.03;2.28;;;;;;;12.12;100.00;101247.44;5020498;28;20023;-82
2022/10/16 07:29:21;;;;;;;8.70;3.05;;;;;;;12.19;100.00;101251.31;5015318;28;20037;-85
2022/10/16 07:31:47;;;;;;;4.88;2.33;;;;;;;12.23;100.00;101255.41;5015537;28;20029;-83
2022/10/16 07:34:15;;;;;;;4.82;2.42;;;;;;;12.28;100.00;101263.81;5025531;28;20034;-82
2022/10/16 07:36:41;;;;;;;7.97;2.70;;;;;;;12.34;100.00;101265.97;5023209;28;20041;-83
2022/10/16 07:39:06;;;;;;;4.60;2.47;;;;;;;12.41;100.00;101272.50;5002147;28;20048;-81
2022/10/16 07:41:32;;;;;;;5.13;2.92;;;;;;;12.49;100.00;101277.22;5007256;28;20045;-83
2022/10/16 07:44:00;;;;;;;4.90;2.28;;;;;;;12.55;100.00;101280.22;5006450;28;20053;-82
2022/10/16 07:46:28;;;;;;;4.65;2.33;;;;;;;12.66;100.00;101291.75;5008685;28;20038;-83
2022/10/16 07:48:53;;;;;;;9.60;2.75;;;;;;;12.75;100.00;101293.69;5026076;28;20033;-82
2022/10/16 07:51:22;;;;;;;5.95;2.33;;;;;;;12.82;100.00;101284.38;5006949;28;20108;-82
2022/10/16 07:53:47;;;;;;;4.47;2.35;;;;;;;12.87;100.00;101306.00;4989599;28;20179;-83
2022/10/16 07:56:14;;;;;;;5.93;2.35;;;;;;;12.96;100.00;101307.94;5006770;28;20095;-84
2022/10/16 07:58:39;;;;;;;3.90;2.20;;;;;;;13.02;100.00;101301.31;4989140;28;20100;-83
2022/10/16 08:01:06;;;;;;;6.97;2.30;;;;;;;13.09;100.00;101308.66;4993127;28;20477;-84
2022/10/16 08:03:32;;;;;;;6.90;2.60;;;;;;;13.13;100.00;101307.47;5005948;28;20037;-83
2022/10/16 08:05:59;;;;;;;4.93;2.42;;;;;;;13.20;100.00;101307.84;5006011;28;20026;-82
2022/10/16 08:08:27;;;;;;;8.35;2.47;;;;;;;13.28;100.00;101323.13;5009425;28;20389;-82
2022/10/16 08:10:53;;;;;;;9.13;2.88;;;;;;;13.33;100.00;101329.75;4992564;28;20084;-82
2022/10/16 08:13:19;;;;;;;6.25;2.30;;;;;;;13.40;100.00;101327.47;5008374;28;20058;-83
2022/10/16 08:15:45;;;;;;;6.00;2.70;;;;;;;13.46;100.00;101338.38;5009805;28;20540;-83
2022/10/16 08:18:12;;;;;;;5.20;2.47;;;;;;;13.53;100.00;101337.91;4995135;28;20030;-83
2022/10/16 08:20:38;;;;;;;6.10;2.45;;;;;;;13.64;100.00;101335.28;5026913;28;20021;-83
2022/10/16 08:23:04;;;;;;;7.30;2.47;;;;;;;13.72;100.00;101338.16;5025127;28;20029;-83
2022/10/16 08:25:29;;;;;;;9.05;2.72;;;;;;;13.78;100.00;101341.16;5011478;28;20413;-84
2022/10/16 08:27:57;;;;;;;5.88;2.42;;;;;;;13.89;100.00;101342.09;5027530;28;20022;-83
2022/10/16 08:30:24;;;;;;;4.15;2.28;;;;;;;14.02;100.00;101346.28;5027026;28;20617;-83
2022/10/16 08:32:49;;;;;;;3.90;2.30;;;;;;;14.11;100.00;101347.34;4994394;28;20397;-84
2022/10/16 08:35:15;;;;;;;5.18;2.30;;;;;;;14.22;100.00;101343.81;5008470;28;20026;-83
2022/10/16 08:37:41;;;;;;;4.55;2.40;;;;;;;14.31;100.00;101356.31;5010644;28;20037;-84
2022/10/16 08:40:32;;;;;;;4.82;2.42;;;;;;;14.41;98.29;101360.75;5008174;28;20033;-84
2022/10/16 08:43:11;;;;;;;4.28;2.05;;;;;;;14.49;97.76;101370.75;4989119;28;20119;-83
2022/10/16 08:45:46;;;;;;;5.30;2.20;;;;;;;14.61;97.33;101374.19;4989353;28;20677;-83
2022/10/16 08:48:17;;;;;;;5.82;1.83;;;;;;;14.68;96.16;101362.94;5008687;28;20053;-84
2022/10/16 08:50:43;;;;;;;6.40;2.30;;;;;;;14.74;95.51;101361.59;5008869;28;20026;-83
2022/10/16 08:53:17;;;;;;;6.93;2.10;;;;;;;14.82;94.05;101371.56;5008783;28;20040;-82
2022/10/16 08:55:48;;;;;;;5.78;2.03;;;;;;;14.87;93.31;101372.88;5026569;28;20025;-83
2022/10/16 08:58:16;;;;;;;5.97;1.98;;;;;;;14.91;93.59;101371.63;5026441;28;20087;-83
2022/10/16 09:00:46;;;;;;;3.78;1.65;;;;;;;15.02;93.88;101371.56;5025758;28;20528;-83
2022/10/16 09:03:22;;;;;;;6.28;2.10;;;;;;;15.11;92.54;101374.41;5025143;28;20108;-83
2022/10/16 09:06:17;;;;;;;3.60;1.75;;;;;;;15.17;92.65;101384.50;5028373;28;20025;-83
2022/10/16 09:08:56;;;;;;;4.78;1.63;;;;;;;15.27;92.57;101393.38;4992269;28;20041;-83
2022/10/16 09:11:31;;;;;;;6.93;1.67;;;;;;;15.37;90.76;101388.94;4992513;28;20148;-83
2022/10/16 09:14:23;;;;;;;9.35;1.98;;;;;;;15.37;90.28;101394.25;5008167;28;20049;-83
2022/10/16 09:17:03;;;;;;;5.47;1.60;;;;;;;15.50;90.00;101397.53;4997774;28;20037;-83
2022/10/16 09:19:33;;;;;;;8.10;1.85;;;;;;;15.62;88.71;101404.47;5002600;28;20038;-83
2022/10/16 09:22:10;;;;;;;6.55;1.80;;;;;;;15.66;87.75;101405.06;5009383;28;20347;-83
2022/10/16 09:24:36;;;;;;;7.25;1.85;;;;;;;15.76;88.48;101399.78;5011673;28;20499;-83
2022/10/16 09:27:01;;;;;;;5.13;1.75;;;;;;;15.73;86.66;101405.34;5011221;28;20563;-84
2022/10/16 09:29:27;;;;;;;7.32;1.65;;;;;;;15.77;86.41;101401.47;5009459;28;20052;-84
2022/10/16 09:31:54;;;;;;;6.82;1.73;;;;;;;15.76;85.30;101405.09;5013252;28;20029;-84
2022/10/16 09:34:35;;;;;;;8.82;1.92;;;;;;;15.84;86.64;101418.53;5017414;28;20385;-84
2022/10/16 09:37:04;;;;;;;9.10;1.83;;;;;;;15.88;87.19;101417.28;5009684;28;20088;-84
2022/10/16 09:39:30;;;;;;;10.35;1.70;;;;;;;15.94;85.87;101411.44;5010232;28;20486;-84
2022/10/16 09:42:00;;;;;;;5.88;1.55;;;;;;;16.05;84.89;101414.00;5010203;28;20041;-84
2022/10/16 09:44:30;;;;;;;6.93;1.73;;;;;;;16.02;84.23;101416.94;5009653;28;20390;-83
2022/10/16 09:47:04;;;;;;;8.00;1.80;;;;;;;15.99;84.80;101415.34;4992017;28;20478;-84
2022/10/16 09:49:29;;;;;;;9.23;2.13;;;;;;;15.91;83.71;101417.00;4990983;28;20029;-84
2022/10/16 09:52:24;;;;;;;11.13;2.55;;;;;;;15.94;85.85;101416.75;5002400;28;20040;-84
2022/10/16 09:54:56;;;;;;;7.30;2.08;;;;;;;15.90;83.37;101412.69;4998605;28;20082;-84
2022/10/16 09:57:22;;;;;;;10.75;2.15;;;;;;;15.97;84.24;101419.13;5028565;28;20496;-85
2022/10/16 09:59:50;;;;;;;9.75;1.90;;;;;;;16.01;83.23;101420.56;5029144;28;20485;-84
2022/10/16 10:02:18;;;;;;;11.25;2.40;;;;;;;16.05;82.31;101432.59;5029312;28;20033;-84
2022/10/16 10:04:54;;;;;;;10.73;2.42;;;;;;;16.11;81.82;101426.75;5012331;28;20037;-85
2022/10/16 10:07:43;;;;;;;10.57;2.28;;;;;;;16.23;83.33;101425.66;5029088;28;20300;-85
2022/10/16 10:10:27;;;;;;;10.88;2.10;;;;;;;16.35;82.86;101425.53;5016417;28;20041;-85
2022/10/16 10:12:53;;;;;;;8.70;2.25;;;;;;;16.30;82.31;101432.09;5010393;28;20033;-84
2022/10/16 10:15:21;;;;;;;11.35;2.40;;;;;;;16.24;80.15;101431.78;5010895;28;20022;-84
2022/10/16 10:17:55;;;;;;;13.10;2.47;;;;;;;16.32;81.07;101433.78;5011421;28;20030;-85
2022/10/16 10:20:38;;;;;;;9.13;2.30;;;;;;;16.39;81.19;101434.91;4992057;28;20041;-84
2022/10/16 10:23:26;;;;;;;9.27;2.13;;;;;;;16.50;81.45;101437.47;4992585;28;20026;-83
2022/10/16 10:26:11;;;;;;;10.93;2.42;;;;;;;16.47;80.15;101448.38;5013724;28;20066;-85
2022/10/16 10:29:02;;;;;;;13.70;2.25;;;;;;;16.41;79.77;101447.09;4993000;28;20026;-83
2022/10/16 10:31:39;;;;;;;11.00;2.10;;;;;;;16.42;81.09;101450.59;4984808;28;20030;-84
2022/10/16 10:34:19;;;;;;;11.35;2.15;;;;;;;16.59;81.23;101463.19;4992198;28;20555;-84
2022/10/16 10:36:56;;;;;;;11.15;2.58;;;;;;;16.71;77.96;101455.97;4991586;28;20402;-84
2022/10/16 10:39:36;;;;;;;9.70;2.58;;;;;;;16.92;79.43;101449.56;4991068;28;20482;-85
2022/10/16 10:42:28;;;;;;;9.13;2.25;;;;;;;16.84;76.80;101446.75;5012259;28;20082;-83
2022/10/16 10:45:00;;;;;;;10.55;2.10;;;;;;;16.85;75.78;101448.44;5011384;28;20025;-84
2022/10/16 10:48:00;;;;;;;13.82;2.47;;;;;;;16.84;77.64;101454.75;5027132;28;20028;-84
2022/10/16 10:50:50;;;;;;;9.65;2.15;;;;;;;16.77;78.63;101460.72;5008795;28;20045;-84
2022/10/16 10:53:41;;;;;;;13.52;2.78;;;;;;;16.80;76.99;101466.59;5024291;28;20575;-84
2022/10/16 10:56:36;;;;;;;12.10;2.92;;;;;;;16.83;77.61;101470.81;5009771;28;20029;-84
2022/10/16 10:59:10;;;;;;;12.20;2.85;;;;;;;16.65;76.40;101464.47;5028132;28;20040;-85
2022/10/16 11:01:54;;;;;;;12.82;2.97;;;;;;;16.68;76.97;101462.41;5045367;28;20024;-85
2022/10/16 11:04:57;;;;;;;11.30;2.35;;;;;;;16.62;77.33;101462.91;5029540;28;20432;-85
2022/10/16 11:07:34;;;;;;;15.45;2.67;;;;;;;16.47;77.03;101465.13;5029754;28;20820;-83
2022/10/16 11:10:18;;;;;;;10.25;2.45;;;;;;;16.43;76.88;101468.22;5029949;28;20025;-83
2022/10/16 11:12:47;;;;;;;11.98;2.63;;;;;;;16.61;75.63;101470.06;5047917;28;20188;-84
2022/10/16 11:15:21;;;;;;;12.60;3.00;;;;;;;16.58;75.32;101464.19;5046527;28;20021;-83
2022/10/16 11:18:15;;;;;;;14.80;3.55;;;;;;;16.54;76.57;101466.25;5047762;28;20043;-83
2022/10/16 11:20:50;;;;;;;12.95;2.42;;;;;;;16.41;75.30;101464.81;4994277;28;20036;-83
2022/10/16 11:23:28;;;;;;;16.02;2.92;;;;;;;16.36;74.65;101472.34;5013113;28;20398;-85
2022/10/16 11:26:01;;;;;;;10.80;2.40;;;;;;;16.48;75.95;101472.13;5010138;28;20017;-83
2022/10/16 11:28:35;;;;;;;10.30;2.70;;;;;;;16.65;74.47;101473.28;5008780;28;20478;-83